Latest Weather Observations for Collie East

IDW60801

Issued at 8:05 pm WST Wednesday 22 October 2014 (issued every 30 minutes, with the page automatically refreshed every 10 minutes)

About weather observations | Map of weather stations | Latest weather observations for WA | Other Formats
Station Details ID: 009994 Name: COLLIE EAST Lat: -33.36 Lon: 116.17 Height: 200.0 m
Data from the previous 72 hours. | See also: Recent months at Collie East
Date/Time
WST
Temp
°C
App
Temp
°C
Dew
Point
Rel
Hum
%
Delta-T
°C
Wind Press
QNH
hPa
Press
MSL
hPa
Rain
since 9 am
mm
Dir
 
Spd
km/h
Gust
km/h
Spd
kts
Gust
kts
22/08:00pm 17.7 17.3 14.0 79 2.1 W 9 19 5 10 - - 0.8
22/07:30pm 18.0 17.6 14.1 78 2.3 WNW 9 20 5 11 - - 0.8
22/07:00pm 18.5 18.5 14.2 76 2.5 WNW 7 15 4 8 - - 0.8
22/06:30pm 18.8 18.0 14.1 74 2.7 WNW 11 20 6 11 - - 0.8
22/06:00pm 19.4 17.5 14.2 72 3.0 WNW 17 30 9 16 - - 0.8
22/05:30pm 20.5 17.8 13.5 64 4.0 WNW 20 35 11 19 - - 0.8
22/05:00pm 21.7 18.1 13.1 58 5.0 WNW 24 35 13 19 - - 0.8
22/04:30pm 22.5 19.7 13.3 56 5.4 WNW 20 33 11 18 - - 0.8
22/04:00pm 22.8 21.0 14.4 59 5.0 WNW 17 30 9 16 - - 0.8
22/03:45pm 21.0 16.5 14.9 68 3.6 NW 32 50 17 27 - - 0.6
22/03:44pm 22.0 17.4 15.1 65 4.1 NW 33 50 18 27 - - 0.4
22/03:30pm 27.1 27.4 16.1 51 6.8 WNW 9 13 5 7 - - 0.0
22/03:00pm 27.9 26.9 12.3 38 9.1 NNE 9 17 5 9 - - 0.0
22/02:30pm 28.7 26.2 12.2 36 9.7 NE 17 24 9 13 - - 0.0
22/02:00pm 29.0 27.4 14.0 39 9.1 NNE 15 24 8 13 - - 0.0
22/01:30pm 28.0 26.8 13.9 42 8.5 ENE 13 20 7 11 - - 0.0
22/01:00pm 27.7 26.6 15.4 47 7.6 ENE 15 28 8 15 - - 0.0
22/12:30pm 26.3 25.0 14.7 48 7.0 E 15 22 8 12 - - 0.0
22/12:00pm 25.6 23.5 14.7 51 6.6 NNE 19 28 10 15 - - 0.0
22/11:30am 24.8 22.9 14.3 52 6.3 E 17 26 9 14 - - 0.0
22/11:00am 23.6 21.0 13.8 54 5.8 E 20 33 11 18 - - 0.0
22/10:30am 22.9 21.1 14.5 59 5.0 ENE 17 24 9 13 - - 0.0
22/10:00am 22.3 20.6 13.6 58 5.1 E 15 24 8 13 - - 0.0
22/09:30am 21.3 19.1 13.2 60 4.7 ENE 17 26 9 14 - - 0.0
22/09:00am 20.7 20.1 13.4 63 4.2 E 9 17 5 9 - - 0.0
22/08:30am 18.7 16.7 12.7 68 3.4 E 15 22 8 12 - - 0.0
22/08:00am 17.4 15.7 12.5 73 2.7 E 13 22 7 12 - - 0.0
22/07:30am 15.5 14.4 12.1 80 1.9 ESE 9 17 5 9 - - 0.0
22/07:00am 14.6 13.9 11.9 84 1.5 ESE 7 13 4 7 - - 0.0
22/06:30am 13.5 12.3 11.6 88 1.0 ESE 9 13 5 7 - - 0.0
22/06:00am 12.3 11.3 11.0 92 0.7 ESE 7 11 4 6 - - 0.0
22/05:30am 11.1 10.0 9.9 92 0.6 SE 6 9 3 5 - - 0.0
22/05:00am 10.3 8.9 8.9 91 0.7 SE 6 7 3 4 - - 0.0
22/04:30am 10.4 9.0 9.0 91 0.7 SSE 6 9 3 5 - - 0.0
22/04:00am 10.5 9.1 8.9 90 0.8 SE 6 7 3 4 - - 0.0
22/03:30am 10.7 9.7 9.0 89 0.9 SSE 4 7 2 4 - - 0.0
22/03:00am 11.0 9.7 9.1 88 1.0 SSE 6 7 3 4 - - 0.0
22/02:30am 11.4 9.9 9.1 86 1.2 SE 7 11 4 6 - - 0.0
22/02:00am 11.9 10.5 9.5 85 1.2 SE 7 11 4 6 - - 0.0
22/01:30am 12.3 10.9 9.5 83 1.4 SE 7 13 4 7 - - 0.0
22/01:00am 12.7 11.5 9.7 82 1.5 SSE 6 7 3 4 - - 0.0
22/12:30am 13.5 11.8 9.9 79 1.9 ESE 9 20 5 11 - - 0.0
22/12:00am 14.1 12.5 10.1 77 2.1 ESE 9 13 5 7 - - 0.0
 
Date/Time
WST
Temp
°C
App
Temp
°C
Dew
Point
Rel
Hum
%
Delta-T
°C
Wind Press
QNH
hPa
Press
MSL
hPa
Rain
since 9 am
mm
Dir
 
Spd
km/h
Gust
km/h
Spd
kts
Gust
kts
21/11:30pm 14.5 12.8 9.9 74 2.4 ESE 9 19 5 10 - - 0.0
21/11:00pm 14.8 12.7 9.6 71 2.7 ESE 11 17 6 9 - - 0.0
21/10:30pm 15.2 13.0 9.3 68 3.1 ESE 11 17 6 9 - - 0.0
21/10:00pm 15.0 13.2 9.4 69 2.9 SE 9 15 5 8 - - 0.0
21/09:30pm 12.5 11.4 9.9 84 1.3 SE 6 9 3 5 - - 0.0
21/09:00pm 12.9 11.7 9.7 81 1.7 SE 6 7 3 4 - - 0.0
21/08:30pm 14.0 12.9 9.8 76 2.2 SE 6 7 3 4 - - 0.0
21/08:00pm 15.3 13.9 9.7 69 2.9 SE 7 9 4 5 - - 0.0
21/07:30pm 16.4 14.9 8.6 60 4.0 ESE 6 7 3 4 - - 0.0
21/07:00pm 17.5 15.8 8.4 55 4.7 ESE 7 11 4 6 - - 0.0
21/06:30pm 18.5 16.9 8.7 53 5.1 ESE 7 9 4 5 - - 0.0
21/06:00pm 20.1 18.9 9.4 50 5.7 ESE 6 11 3 6 - - 0.0
21/05:30pm 21.3 19.2 8.2 43 6.9 SE 9 17 5 9 - - 0.0
21/05:00pm 21.9 19.9 8.8 43 7.0 ESE 9 13 5 7 - - 0.0
21/04:30pm 22.5 20.5 8.6 41 7.4 SE 9 15 5 8 - - 0.0
21/04:00pm 22.7 21.2 9.1 42 7.4 SSE 7 19 4 10 - - 0.0
21/03:30pm 22.3 19.8 6.5 36 8.1 ENE 9 20 5 11 - - 0.0
21/03:00pm 22.1 19.6 4.6 32 8.7 SE 7 13 4 7 - - 0.0
21/02:30pm 22.1 20.2 6.7 37 7.9 SSE 6 9 3 5 - - 0.0
21/02:00pm 21.9 19.6 5.8 35 8.2 SW 7 15 4 8 - - 0.0
21/01:30pm 21.3 18.7 6.0 37 7.8 S 9 13 5 7 - - 0.0
21/01:00pm 21.1 19.6 9.0 46 6.5 SW 7 13 4 7 - - 0.0
21/12:30pm 20.0 18.3 8.4 47 6.1 SSE 7 13 4 7 - - 0.0
21/12:00pm 19.5 18.2 10.0 54 5.1 NE 7 13 4 7 - - 0.0
21/11:30am 18.8 17.0 7.9 49 5.6 SSE 7 13 4 7 - - 0.0
21/11:00am 17.7 16.1 8.8 56 4.6 SSW 7 11 4 6 - - 0.0
21/10:30am 17.2 15.6 8.6 57 4.5 SSE 7 11 4 6 - - 0.0
21/10:00am 16.3 14.7 8.8 61 3.9 ESE 7 13 4 7 - - 0.0
21/09:30am 15.4 13.6 9.3 67 3.2 E 9 13 5 7 - - 0.0
21/09:00am 13.3 11.9 9.5 78 2.0 S 7 11 4 6 - - 0.2
21/08:30am 11.6 11.1 10.8 95 0.4 ENE 4 9 2 5 - - 0.2
21/08:00am 10.0 9.9 9.4 96 0.3 CALM 0 4 0 2 - - 0.2
21/07:30am 9.0 8.6 8.2 95 0.4 CALM 0 6 0 3 - - 0.2
21/07:00am 8.2 7.6 7.4 95 0.4 CALM 0 0 0 0 - - 0.2
21/06:30am 7.6 6.9 6.9 95 0.3 CALM 0 0 0 0 - - 0.2
21/06:00am 7.2 6.4 6.5 95 0.3 CALM 0 0 0 0 - - 0.2
21/05:30am 7.0 5.7 6.1 94 0.4 E 2 7 1 4 - - 0.2
21/05:00am 7.4 6.6 6.7 95 0.3 CALM 0 0 0 0 - - 0.2
21/04:30am 7.3 6.5 6.4 94 0.4 CALM 0 0 0 0 - - 0.2
21/04:00am 7.2 6.4 6.3 94 0.4 CALM 0 0 0 0 - - 0.2
21/03:30am 7.4 6.6 6.5 94 0.4 CALM 0 0 0 0 - - 0.2
21/03:00am 7.4 6.6 6.5 94 0.4 CALM 0 0 0 0 - - 0.2
21/02:30am 7.6 6.8 6.7 94 0.4 CALM 0 0 0 0 - - 0.2
21/02:00am 7.7 7.0 6.8 94 0.4 CALM 0 0 0 0 - - 0.2
21/01:30am 7.5 6.7 6.6 94 0.4 CALM 0 0 0 0 - - 0.2
21/01:00am 7.8 7.1 6.9 94 0.4 CALM 0 0 0 0 - - 0.2
21/12:30am 7.7 6.9 6.6 93 0.5 CALM 0 0 0 0 - - 0.2
21/12:00am 8.2 7.5 7.1 93 0.5 CALM 0 0 0 0 - - 0.2
 
Date/Time
WST
Temp
°C
App
Temp
°C
Dew
Point
Rel
Hum
%
Delta-T
°C
Wind Press
QNH
hPa
Press
MSL
hPa
Rain
since 9 am
mm
Dir
 
Spd
km/h
Gust
km/h
Spd
kts
Gust
kts
20/11:30pm 8.5 7.9 7.4 93 0.5 CALM 0 0 0 0 - - 0.2
20/11:00pm 9.0 8.5 7.8 92 0.6 CALM 0 0 0 0 - - 0.2
20/10:30pm 9.8 9.5 8.6 92 0.6 CALM 0 0 0 0 - - 0.2
20/10:00pm 10.1 9.9 8.9 92 0.6 CALM 0 0 0 0 - - 0.2
20/09:30pm 10.9 10.9 9.7 92 0.6 CALM 0 0 0 0 - - 0.2
20/09:00pm 11.0 10.9 9.4 90 0.8 CALM 0 6 0 3 - - 0.2
20/08:30pm 11.6 11.6 9.7 88 1.0 CALM 0 0 0 0 - - 0.2
20/08:00pm 12.5 12.6 10.2 86 1.2 CALM 0 2 0 1 - - 0.2
20/07:30pm 13.2 12.3 10.7 85 1.3 SW 6 9 3 5 - - 0.2
20/07:00pm 13.5 12.9 10.5 82 1.6 W 4 6 2 3 - - 0.2
20/06:30pm 14.5 13.5 10.9 79 1.9 SSW 7 11 4 6 - - 0.2
20/06:00pm 15.8 14.3 10.6 71 2.8 SSW 9 20 5 11 - - 0.2
20/05:30pm 17.6 16.4 11.6 68 3.3 SW 9 19 5 10 - - 0.2
20/05:00pm 17.4 15.8 11.4 68 3.3 WSW 11 19 6 10 - - 0.2
20/04:30pm 17.4 15.5 11.9 70 3.0 W 13 24 7 13 - - 0.2
20/04:00pm 17.0 15.6 12.1 73 2.7 WSW 11 24 6 13 - - 0.0
20/03:30pm 18.4 16.5 11.9 66 3.6 W 13 20 7 11 - - 0.0
20/03:00pm 18.2 16.4 12.0 67 3.5 W 13 24 7 13 - - 0.0
20/02:30pm 18.1 15.5 12.1 68 3.3 W 17 35 9 19 - - 0.0
20/02:00pm 18.7 17.2 13.1 70 3.2 W 13 24 7 13 - - 0.0
20/01:30pm 18.4 16.0 13.7 74 2.7 WNW 19 24 10 13 - - 0.0
20/01:00pm 17.8 17.2 13.5 76 2.5 WSW 9 19 5 10 - - 0.0
20/12:30pm 19.8 18.2 12.8 64 4.0 WSW 13 22 7 12 - - 0.0
20/12:00pm 17.1 15.1 12.6 75 2.5 WSW 15 26 8 14 - - 0.0
20/11:30am 18.4 17.0 12.2 67 3.5 W 11 24 6 13 - - 0.0
20/11:00am 17.6 16.0 11.4 67 3.4 WSW 11 24 6 13 - - 0.0
20/10:30am 17.4 15.5 11.7 69 3.1 WSW 13 24 7 13 - - 0.0
20/10:00am 16.9 15.7 11.6 71 2.9 SW 9 17 5 9 - - 0.0
20/09:30am 16.8 15.4 12.1 74 2.6 SW 11 20 6 11 - - 0.0
20/09:00am 15.4 14.2 11.6 78 2.1 W 9 19 5 10 - - 12.2
20/08:30am 14.5 13.2 11.1 80 1.8 WSW 9 17 5 9 - - 12.2
20/08:00am 14.0 12.6 11.0 82 1.6 WSW 9 17 5 9 - - 12.2
20/07:30am 13.6 12.6 11.1 85 1.3 W 7 13 4 7 - - 12.2
20/07:00am 13.0 11.9 10.5 85 1.3 WSW 7 11 4 6 - - 12.2
20/06:30am 12.5 11.3 10.4 87 1.1 WSW 7 13 4 7 - - 12.2
20/06:00am 12.0 10.9 10.1 88 1.0 W 6 9 3 5 - - 12.2
20/05:30am 11.8 10.7 9.9 88 1.0 W 6 11 3 6 - - 12.2
20/05:00am 11.7 10.6 9.8 88 1.0 W 6 9 3 5 - - 12.2
20/04:30am 11.5 10.1 9.6 88 1.0 WNW 7 13 4 7 - - 12.2
20/04:00am 11.3 9.9 9.4 88 1.0 W 7 13 4 7 - - 12.2
20/03:30am 11.3 10.1 9.4 88 1.0 W 6 9 3 5 - - 12.2
20/03:00am 11.3 9.8 9.2 87 1.1 WSW 7 11 4 6 - - 12.2
20/02:30am 11.4 9.9 9.3 87 1.1 SW 7 17 4 9 - - 12.2
20/02:00am 11.4 9.6 9.3 87 1.1 WSW 9 15 5 8 - - 12.2
20/01:30am 11.3 9.9 9.4 88 1.0 WSW 7 9 4 5 - - 12.2
20/01:00am 11.3 10.1 9.6 89 0.9 SSW 6 11 3 6 - - 12.2
20/12:30am 11.1 9.9 9.5 90 0.8 WSW 6 9 3 5 - - 12.2
20/12:00am 11.0 9.8 9.4 90 0.8 SW 6 9 3 5 - - 12.2
 
Date/Time
WST
Temp
°C
App
Temp
°C
Dew
Point
Rel
Hum
%
Delta-T
°C
Wind Press
QNH
hPa
Press
MSL
hPa
Rain
since 9 am
mm
Dir
 
Spd
km/h
Gust
km/h
Spd
kts
Gust
kts
19/11:30pm 11.0 9.8 9.4 90 0.8 SW 6 9 3 5 - - 12.2
19/11:00pm 11.0 9.6 9.6 91 0.7 SW 7 13 4 7 - - 12.2
19/10:30pm 11.0 10.1 9.4 90 0.8 SSW 4 9 2 5 - - 12.2
19/10:00pm 11.0 9.8 9.4 90 0.8 S 6 11 3 6 - - 12.0
19/09:30pm 11.0 9.5 9.3 89 0.9 S 7 13 4 7 - - 12.0
19/09:00pm 10.8 8.9 9.1 89 0.9 SSE 9 15 5 8 - - 12.0
19/08:30pm 10.5 8.9 8.8 89 0.8 S 7 15 4 8 - - 12.0

Other Formats:

Comma delimited format used in spreadsheet applications
http://www.bom.gov.au/fwo/IDW60801/IDW60801.95621.axf

JavaScript Object Notation format (JSON) in row-major order
http://www.bom.gov.au/fwo/IDW60801/IDW60801.95621.json